sensor_id;sensor_type;location;lat;lon;timestamp;pressure;altitude;pressure_sealevel;temperature;humidity
6387;BME280;3226;42.162;24.756;2023-03-21T00:00:47;99650.81;;;10.13;67.02
6387;BME280;3226;42.162;24.756;2023-03-21T00:03:16;99655.09;;;10.03;67.62
6387;BME280;3226;42.162;24.756;2023-03-21T00:05:44;99648.19;;;10.13;67.55
6387;BME280;3226;42.162;24.756;2023-03-21T00:08:15;99646.28;;;10.16;68.09
6387;BME280;3226;42.162;24.756;2023-03-21T00:10:43;99640.41;;;10.23;67.39
6387;BME280;3226;42.162;24.756;2023-03-21T00:13:12;99645.53;;;10.25;66.73
6387;BME280;3226;42.162;24.756;2023-03-21T00:15:41;99626.16;;;9.83;68.28
6387;BME280;3226;42.162;24.756;2023-03-21T00:18:32;99614.78;;;9.73;69.25
6387;BME280;3226;42.162;24.756;2023-03-21T00:21:10;99615.78;;;9.93;68.27
6387;BME280;3226;42.162;24.756;2023-03-21T00:23:59;99617.06;;;9.99;68.39
6387;BME280;3226;42.162;24.756;2023-03-21T00:26:27;99627.38;;;10.12;68.06
6387;BME280;3226;42.162;24.756;2023-03-21T00:28:55;99560.13;;;9.59;68.38
6387;BME280;3226;42.162;24.756;2023-03-21T00:31:24;99610.25;;;9.75;69.74
6387;BME280;3226;42.162;24.756;2023-03-21T00:33:53;99591.13;;;9.52;70.25
6387;BME280;3226;42.162;24.756;2023-03-21T00:36:21;99583.75;;;9.68;69.47
6387;BME280;3226;42.162;24.756;2023-03-21T00:38:51;99602.22;;;9.88;69.18
6387;BME280;3226;42.162;24.756;2023-03-21T00:41:19;99581.63;;;9.62;70.05
6387;BME280;3226;42.162;24.756;2023-03-21T00:44:06;99593.75;;;9.96;70.88
6387;BME280;3226;42.162;24.756;2023-03-21T00:46:34;99579.28;;;9.92;70.74
6387;BME280;3226;42.162;24.756;2023-03-21T00:49:16;99600.13;;;10.15;71.17
6387;BME280;3226;42.162;24.756;2023-03-21T00:51:46;99589.66;;;10.15;70.87
6387;BME280;3226;42.162;24.756;2023-03-21T00:54:17;99588.56;;;10.17;70.25
6387;BME280;3226;42.162;24.756;2023-03-21T00:56:45;99589.66;;;10.15;70.74
6387;BME280;3226;42.162;24.756;2023-03-21T00:59:13;99578.34;;;10.14;70.93
6387;BME280;3226;42.162;24.756;2023-03-21T01:01:42;99569.88;;;9.89;71.70
6387;BME280;3226;42.162;24.756;2023-03-21T01:04:13;99581.22;;;9.78;72.12
6387;BME280;3226;42.162;24.756;2023-03-21T01:06:44;99565.63;;;9.33;73.83
6387;BME280;3226;42.162;24.756;2023-03-21T01:09:14;99568.50;;;9.18;74.86
6387;BME280;3226;42.162;24.756;2023-03-21T01:11:43;99556.50;;;8.81;75.96
6387;BME280;3226;42.162;24.756;2023-03-21T01:14:12;99569.22;;;8.86;75.65
6387;BME280;3226;42.162;24.756;2023-03-21T01:16:49;99565.28;;;8.69;76.43
6387;BME280;3226;42.162;24.756;2023-03-21T01:19:18;99555.66;;;8.92;75.96
6387;BME280;3226;42.162;24.756;2023-03-21T01:21:58;99547.13;;;8.79;75.54
6387;BME280;3226;42.162;24.756;2023-03-21T01:24:26;99552.25;;;8.92;75.75
6387;BME280;3226;42.162;24.756;2023-03-21T01:26:54;99557.34;;;8.71;75.78
6387;BME280;3226;42.162;24.756;2023-03-21T01:29:22;99558.25;;;8.58;76.48
6387;BME280;3226;42.162;24.756;2023-03-21T01:31:50;99555.06;;;8.55;76.27
6387;BME280;3226;42.162;24.756;2023-03-21T01:34:18;99554.44;;;8.51;76.21
6387;BME280;3226;42.162;24.756;2023-03-21T01:36:46;99553.22;;;8.44;76.06
6387;BME280;3226;42.162;24.756;2023-03-21T01:39:15;99544.63;;;8.19;77.10
6387;BME280;3226;42.162;24.756;2023-03-21T01:41:43;99536.00;;;8.30;76.71
6387;BME280;3226;42.162;24.756;2023-03-21T01:44:15;99544.63;;;8.55;76.27
6387;BME280;3226;42.162;24.756;2023-03-21T01:46:43;99531.91;;;8.61;77.42
6387;BME280;3226;42.162;24.756;2023-03-21T01:49:27;99531.16;;;8.36;78.61
6387;BME280;3226;42.162;24.756;2023-03-21T01:52:03;99526.59;;;8.27;79.35
6387;BME280;3226;42.162;24.756;2023-03-21T01:54:42;99521.38;;;8.27;79.38
6387;BME280;3226;42.162;24.756;2023-03-21T01:57:14;99520.53;;;8.51;79.88
6387;BME280;3226;42.162;24.756;2023-03-21T01:59:45;99514.97;;;8.56;79.49
6387;BME280;3226;42.162;24.756;2023-03-21T02:02:19;99507.53;;;8.38;80.01
6387;BME280;3226;42.162;24.756;2023-03-21T02:04:49;99506.53;;;8.52;80.90
6387;BME280;3226;42.162;24.756;2023-03-21T02:07:24;99503.50;;;8.45;81.65
6387;BME280;3226;42.162;24.756;2023-03-21T02:09:56;99477.25;;;8.24;81.24
6387;BME280;3226;42.162;24.756;2023-03-21T02:12:25;99499.84;;;8.36;82.11
6387;BME280;3226;42.162;24.756;2023-03-21T02:14:54;99508.56;;;8.60;81.64
6387;BME280;3226;42.162;24.756;2023-03-21T02:17:27;99512.81;;;8.83;80.41
6387;BME280;3226;42.162;24.756;2023-03-21T02:23:23;99506.41;;;8.76;81.10
6387;BME280;3226;42.162;24.756;2023-03-21T02:29:31;99499.81;;;8.25;83.69
6387;BME280;3226;42.162;24.756;2023-03-21T02:32:10;99506.91;;;8.23;84.35
6387;BME280;3226;42.162;24.756;2023-03-21T02:35:27;99494.00;;;8.33;84.11
6387;BME280;3226;42.162;24.756;2023-03-21T02:38:11;99514.19;;;8.42;84.43
6387;BME280;3226;42.162;24.756;2023-03-21T02:40:47;99482.38;;;8.25;83.94
6387;BME280;3226;42.162;24.756;2023-03-21T02:43:21;99524.06;;;8.50;83.88
6387;BME280;3226;42.162;24.756;2023-03-21T02:45:54;99513.84;;;8.47;83.26
6387;BME280;3226;42.162;24.756;2023-03-21T02:48:26;99527.19;;;8.66;82.74
6387;BME280;3226;42.162;24.756;2023-03-21T02:51:12;99523.03;;;8.52;83.52
6387;BME280;3226;42.162;24.756;2023-03-21T02:53:48;99529.25;;;8.38;85.17
6387;BME280;3226;42.162;24.756;2023-03-21T02:56:38;99524.56;;;8.55;83.65
6387;BME280;3226;42.162;24.756;2023-03-21T02:59:09;99524.78;;;8.52;82.72
6387;BME280;3226;42.162;24.756;2023-03-21T03:01:37;99526.19;;;8.45;83.00
6387;BME280;3226;42.162;24.756;2023-03-21T03:04:16;99527.84;;;8.34;82.88
6387;BME280;3226;42.162;24.756;2023-03-21T03:07:02;99514.72;;;8.12;82.39
6387;BME280;3226;42.162;24.756;2023-03-21T03:09:46;99532.94;;;8.00;83.28
6387;BME280;3226;42.162;24.756;2023-03-21T03:12:28;99535.25;;;7.92;84.18
6387;BME280;3226;42.162;24.756;2023-03-21T03:15:04;99531.34;;;7.86;84.20
6387;BME280;3226;42.162;24.756;2023-03-21T03:17:48;99534.91;;;7.85;84.29
6387;BME280;3226;42.162;24.756;2023-03-21T03:20:29;99541.91;;;8.20;82.67
6387;BME280;3226;42.162;24.756;2023-03-21T03:23:04;99516.66;;;7.85;82.55
6387;BME280;3226;42.162;24.756;2023-03-21T03:25:41;99508.50;;;7.65;83.44
6387;BME280;3226;42.162;24.756;2023-03-21T03:28:14;99549.47;;;7.88;83.87
6387;BME280;3226;42.162;24.756;2023-03-21T03:30:44;99547.38;;;7.69;84.37
6387;BME280;3226;42.162;24.756;2023-03-21T03:33:33;99531.78;;;7.56;85.20
6387;BME280;3226;42.162;24.756;2023-03-21T03:36:04;99540.91;;;7.74;84.79
6387;BME280;3226;42.162;24.756;2023-03-21T03:38:37;99541.66;;;7.88;83.95
6387;BME280;3226;42.162;24.756;2023-03-21T03:41:10;99549.53;;;7.99;83.48
6387;BME280;3226;42.162;24.756;2023-03-21T03:43:44;99544.13;;;8.14;82.68
6387;BME280;3226;42.162;24.756;2023-03-21T03:46:18;99418.09;;;7.30;82.89
6387;BME280;3226;42.162;24.756;2023-03-21T03:48:53;99528.69;;;7.75;84.87
6387;BME280;3226;42.162;24.756;2023-03-21T03:51:24;99494.31;;;7.45;85.40
6387;BME280;3226;42.162;24.756;2023-03-21T03:53:56;99534.34;;;7.69;85.49
6387;BME280;3226;42.162;24.756;2023-03-21T03:56:27;99528.31;;;7.68;85.48
6387;BME280;3226;42.162;24.756;2023-03-21T03:58:56;99520.97;;;7.73;85.32
6387;BME280;3226;42.162;24.756;2023-03-21T04:01:24;99525.31;;;7.61;85.76
6387;BME280;3226;42.162;24.756;2023-03-21T04:03:52;99482.16;;;7.08;87.03
6387;BME280;3226;42.162;24.756;2023-03-21T04:06:38;99526.75;;;7.04;88.02
6387;BME280;3226;42.162;24.756;2023-03-21T04:09:07;99530.50;;;6.87;89.19
6387;BME280;3226;42.162;24.756;2023-03-21T04:11:48;99527.19;;;6.85;88.83
6387;BME280;3226;42.162;24.756;2023-03-21T04:14:16;99535.69;;;7.00;88.49
6387;BME280;3226;42.162;24.756;2023-03-21T04:16:45;99535.50;;;7.03;87.81
6387;BME280;3226;42.162;24.756;2023-03-21T04:19:13;99530.56;;;7.11;87.56
6387;BME280;3226;42.162;24.756;2023-03-21T04:21:41;99531.66;;;6.83;88.56
6387;BME280;3226;42.162;24.756;2023-03-21T04:24:09;99539.09;;;7.13;87.60
6387;BME280;3226;42.162;24.756;2023-03-21T04:26:39;99536.50;;;7.13;87.15
6387;BME280;3226;42.162;24.756;2023-03-21T04:29:09;99549.16;;;6.93;87.80
6387;BME280;3226;42.162;24.756;2023-03-21T04:31:37;99546.09;;;7.13;87.30
6387;BME280;3226;42.162;24.756;2023-03-21T04:34:07;99544.06;;;7.29;86.16
6387;BME280;3226;42.162;24.756;2023-03-21T04:36:38;99537.31;;;7.27;85.82
6387;BME280;3226;42.162;24.756;2023-03-21T04:39:12;99543.16;;;7.17;86.41
6387;BME280;3226;42.162;24.756;2023-03-21T04:41:42;99540.63;;;6.91;87.67
6387;BME280;3226;42.162;24.756;2023-03-21T04:44:13;99537.63;;;7.22;87.20
6387;BME280;3226;42.162;24.756;2023-03-21T04:46:41;99525.63;;;7.32;85.89
6387;BME280;3226;42.162;24.756;2023-03-21T04:49:09;99546.13;;;7.37;86.15
6387;BME280;3226;42.162;24.756;2023-03-21T04:51:38;99560.84;;;7.38;86.27
6387;BME280;3226;42.162;24.756;2023-03-21T04:54:06;99553.41;;;7.45;86.05
6387;BME280;3226;42.162;24.756;2023-03-21T04:56:33;99565.78;;;7.54;85.63
6387;BME280;3226;42.162;24.756;2023-03-21T04:59:06;99556.41;;;7.51;85.55
6387;BME280;3226;42.162;24.756;2023-03-21T05:01:36;99556.50;;;7.63;85.44
6387;BME280;3226;42.162;24.756;2023-03-21T05:04:04;99565.44;;;7.59;85.29
6387;BME280;3226;42.162;24.756;2023-03-21T05:06:32;99560.41;;;7.44;85.38
6387;BME280;3226;42.162;24.756;2023-03-21T05:09:02;99568.94;;;7.46;86.23
6387;BME280;3226;42.162;24.756;2023-03-21T05:11:32;99549.78;;;7.34;86.70
6387;BME280;3226;42.162;24.756;2023-03-21T05:14:01;99559.81;;;7.65;85.99
6387;BME280;3226;42.162;24.756;2023-03-21T05:16:29;99566.25;;;7.72;86.01
6387;BME280;3226;42.162;24.756;2023-03-21T05:19:00;99544.72;;;7.57;86.58
6387;BME280;3226;42.162;24.756;2023-03-21T05:21:30;99569.16;;;7.92;85.86
6387;BME280;3226;42.162;24.756;2023-03-21T05:23:59;99575.75;;;8.09;85.24
6387;BME280;3226;42.162;24.756;2023-03-21T05:26:29;99562.88;;;8.19;84.45
6387;BME280;3226;42.162;24.756;2023-03-21T05:28:57;99560.66;;;8.25;84.06
6387;BME280;3226;42.162;24.756;2023-03-21T05:31:25;99558.44;;;8.32;84.23
6387;BME280;3226;42.162;24.756;2023-03-21T05:33:53;99525.94;;;8.01;85.04
6387;BME280;3226;42.162;24.756;2023-03-21T05:36:22;99550.44;;;8.22;85.85
6387;BME280;3226;42.162;24.756;2023-03-21T05:38:50;99549.44;;;8.12;85.35
6387;BME280;3226;42.162;24.756;2023-03-21T05:41:18;99554.16;;;8.31;84.24
6387;BME280;3226;42.162;24.756;2023-03-21T05:43:47;99554.63;;;8.36;84.16
6387;BME280;3226;42.162;24.756;2023-03-21T05:46:15;99552.03;;;8.36;84.77
6387;BME280;3226;42.162;24.756;2023-03-21T05:48:43;99559.38;;;8.43;84.56
6387;BME280;3226;42.162;24.756;2023-03-21T05:51:11;99548.09;;;8.42;84.52
6387;BME280;3226;42.162;24.756;2023-03-21T05:53:40;99552.94;;;8.60;83.90
6387;BME280;3226;42.162;24.756;2023-03-21T05:56:09;99565.78;;;8.97;82.20
6387;BME280;3226;42.162;24.756;2023-03-21T05:58:37;99568.16;;;9.00;81.47
6387;BME280;3226;42.162;24.756;2023-03-21T06:01:06;99565.41;;;9.13;80.91
6387;BME280;3226;42.162;24.756;2023-03-21T06:03:35;99567.06;;;8.68;82.89
6387;BME280;3226;42.162;24.756;2023-03-21T06:06:03;99567.41;;;8.75;83.06
6387;BME280;3226;42.162;24.756;2023-03-21T06:08:32;99564.25;;;8.47;84.34
6387;BME280;3226;42.162;24.756;2023-03-21T06:11:03;99563.84;;;8.76;83.72
6387;BME280;3226;42.162;24.756;2023-03-21T06:13:31;99556.63;;;8.91;83.77
6387;BME280;3226;42.162;24.756;2023-03-21T06:15:59;99558.31;;;9.04;82.47
6387;BME280;3226;42.162;24.756;2023-03-21T06:18:28;99561.38;;;8.97;82.35
6387;BME280;3226;42.162;24.756;2023-03-21T06:20:56;99568.50;;;8.95;82.86
6387;BME280;3226;42.162;24.756;2023-03-21T06:23:24;99565.78;;;8.97;83.27
6387;BME280;3226;42.162;24.756;2023-03-21T06:25:52;99565.66;;;9.10;83.58
6387;BME280;3226;42.162;24.756;2023-03-21T06:28:22;99563.75;;;9.23;81.85
6387;BME280;3226;42.162;24.756;2023-03-21T06:30:49;99565.28;;;9.15;82.64
6387;BME280;3226;42.162;24.756;2023-03-21T06:33:19;99564.34;;;8.93;84.83
6387;BME280;3226;42.162;24.756;2023-03-21T06:35:50;99566.59;;;8.97;84.31
6387;BME280;3226;42.162;24.756;2023-03-21T06:38:19;99570.16;;;8.96;84.86
6387;BME280;3226;42.162;24.756;2023-03-21T06:40:48;99570.06;;;8.98;85.52
6387;BME280;3226;42.162;24.756;2023-03-21T06:43:17;99571.09;;;9.30;84.18
6387;BME280;3226;42.162;24.756;2023-03-21T06:45:46;99568.72;;;9.26;83.64
6387;BME280;3226;42.162;24.756;2023-03-21T06:48:14;99575.09;;;9.57;82.72
6387;BME280;3226;42.162;24.756;2023-03-21T06:50:43;99569.72;;;9.69;81.94
6387;BME280;3226;42.162;24.756;2023-03-21T06:53:10;99571.44;;;9.92;81.32
6387;BME280;3226;42.162;24.756;2023-03-21T06:55:39;99570.75;;;10.11;81.05
6387;BME280;3226;42.162;24.756;2023-03-21T06:58:07;99563.59;;;10.46;78.02
6387;BME280;3226;42.162;24.756;2023-03-21T07:00:35;99577.94;;;10.73;77.14
6387;BME280;3226;42.162;24.756;2023-03-21T07:03:05;99584.06;;;10.83;75.82
6387;BME280;3226;42.162;24.756;2023-03-21T07:05:34;99563.72;;;10.65;76.35
6387;BME280;3226;42.162;24.756;2023-03-21T07:08:05;99588.63;;;10.81;76.21
6387;BME280;3226;42.162;24.756;2023-03-21T07:10:37;99583.84;;;10.96;75.70
6387;BME280;3226;42.162;24.756;2023-03-21T07:13:06;99570.75;;;10.96;75.34
6387;BME280;3226;42.162;24.756;2023-03-21T07:15:34;99576.03;;;11.06;75.58
6387;BME280;3226;42.162;24.756;2023-03-21T07:18:06;99563.47;;;11.40;73.27
6387;BME280;3226;42.162;24.756;2023-03-21T07:20:35;99577.13;;;11.44;73.89
6387;BME280;3226;42.162;24.756;2023-03-21T07:23:04;99555.63;;;11.50;73.50
6387;BME280;3226;42.162;24.756;2023-03-21T07:25:32;99566.84;;;11.92;71.84
6387;BME280;3226;42.162;24.756;2023-03-21T07:28:01;99578.22;;;12.22;70.41
6387;BME280;3226;42.162;24.756;2023-03-21T07:30:31;99574.28;;;12.36;70.48
6387;BME280;3226;42.162;24.756;2023-03-21T07:32:59;99573.72;;;12.62;68.37
6387;BME280;3226;42.162;24.756;2023-03-21T07:35:29;99567.25;;;12.56;67.44
6387;BME280;3226;42.162;24.756;2023-03-21T07:37:57;99571.53;;;12.37;69.73
6387;BME280;3226;42.162;24.756;2023-03-21T07:40:25;99573.09;;;12.78;68.43
6387;BME280;3226;42.162;24.756;2023-03-21T07:42:53;99572.66;;;12.92;67.79
6387;BME280;3226;42.162;24.756;2023-03-21T07:45:21;99573.63;;;12.91;68.08
6387;BME280;3226;42.162;24.756;2023-03-21T07:47:51;99552.50;;;13.11;66.89
6387;BME280;3226;42.162;24.756;2023-03-21T07:50:19;99565.78;;;13.47;65.10
6387;BME280;3226;42.162;24.756;2023-03-21T07:52:49;99565.88;;;13.92;63.36
6387;BME280;3226;42.162;24.756;2023-03-21T07:55:17;99562.13;;;14.12;62.16
6387;BME280;3226;42.162;24.756;2023-03-21T07:57:45;99544.94;;;13.82;63.17
6387;BME280;3226;42.162;24.756;2023-03-21T08:00:18;99559.19;;;13.97;62.67
6387;BME280;3226;42.162;24.756;2023-03-21T08:02:49;99551.94;;;14.17;61.26
6387;BME280;3226;42.162;24.756;2023-03-21T08:05:28;99562.66;;;13.98;61.90
6387;BME280;3226;42.162;24.756;2023-03-21T08:07:59;99536.91;;;14.10;61.17
6387;BME280;3226;42.162;24.756;2023-03-21T08:10:27;99540.31;;;14.20;61.09
6387;BME280;3226;42.162;24.756;2023-03-21T08:12:55;99549.47;;;14.34;60.69
6387;BME280;3226;42.162;24.756;2023-03-21T08:15:23;99531.50;;;14.11;61.53
6387;BME280;3226;42.162;24.756;2023-03-21T08:17:51;99552.53;;;14.29;61.38
6387;BME280;3226;42.162;24.756;2023-03-21T08:20:21;99556.88;;;14.39;61.57
6387;BME280;3226;42.162;24.756;2023-03-21T08:22:49;99549.53;;;14.24;59.66
6387;BME280;3226;42.162;24.756;2023-03-21T08:25:20;99552.75;;;14.36;60.03
6387;BME280;3226;42.162;24.756;2023-03-21T08:27:49;99553.00;;;13.52;62.45
6387;BME280;3226;42.162;24.756;2023-03-21T08:30:19;99543.31;;;12.97;64.15
6387;BME280;3226;42.162;24.756;2023-03-21T08:32:47;99545.19;;;12.77;65.16
6387;BME280;3226;42.162;24.756;2023-03-21T08:35:17;99554.22;;;13.02;64.58
6387;BME280;3226;42.162;24.756;2023-03-21T08:37:52;99554.91;;;12.66;64.47
6387;BME280;3226;42.162;24.756;2023-03-21T08:40:29;99553.16;;;12.85;64.89
6387;BME280;3226;42.162;24.756;2023-03-21T08:42:59;99545.59;;;13.10;64.03
6387;BME280;3226;42.162;24.756;2023-03-21T08:45:28;99546.09;;;12.95;63.86
6387;BME280;3226;42.162;24.756;2023-03-21T08:47:57;99540.91;;;12.76;64.59
6387;BME280;3226;42.162;24.756;2023-03-21T08:50:26;99529.72;;;12.73;64.56
6387;BME280;3226;42.162;24.756;2023-03-21T08:52:57;99543.34;;;13.15;63.63
6387;BME280;3226;42.162;24.756;2023-03-21T08:55:25;99541.00;;;13.40;63.04
6387;BME280;3226;42.162;24.756;2023-03-21T08:57:54;99535.19;;;13.46;61.96
6387;BME280;3226;42.162;24.756;2023-03-21T09:00:24;99532.44;;;13.66;62.58
6387;BME280;3226;42.162;24.756;2023-03-21T09:02:53;99542.28;;;13.64;62.21
6387;BME280;3226;42.162;24.756;2023-03-21T09:05:21;99545.22;;;13.97;61.20
6387;BME280;3226;42.162;24.756;2023-03-21T09:07:51;99538.97;;;13.98;61.17
6387;BME280;3226;42.162;24.756;2023-03-21T09:10:21;99534.28;;;13.92;60.85
6387;BME280;3226;42.162;24.756;2023-03-21T09:12:51;99511.50;;;13.46;62.21
6387;BME280;3226;42.162;24.756;2023-03-21T09:15:22;99524.84;;;13.35;63.00
6387;BME280;3226;42.162;24.756;2023-03-21T09:17:51;99532.81;;;13.89;61.40
6387;BME280;3226;42.162;24.756;2023-03-21T09:20:21;99513.63;;;13.61;62.92
6387;BME280;3226;42.162;24.756;2023-03-21T09:22:53;99529.88;;;13.92;61.60
6387;BME280;3226;42.162;24.756;2023-03-21T09:25:21;99521.13;;;13.92;60.99
6387;BME280;3226;42.162;24.756;2023-03-21T09:27:51;99524.03;;;14.25;59.61
6387;BME280;3226;42.162;24.756;2023-03-21T09:30:20;99525.84;;;14.24;59.46
6387;BME280;3226;42.162;24.756;2023-03-21T09:32:51;99525.16;;;14.49;59.04
6387;BME280;3226;42.162;24.756;2023-03-21T09:35:21;99519.16;;;14.91;57.65
6387;BME280;3226;42.162;24.756;2023-03-21T09:37:50;99520.78;;;14.84;58.46
6387;BME280;3226;42.162;24.756;2023-03-21T09:40:22;99515.97;;;15.22;56.47
6387;BME280;3226;42.162;24.756;2023-03-21T09:43:02;99441.72;;;14.92;55.74
6387;BME280;3226;42.162;24.756;2023-03-21T09:45:41;99486.22;;;14.95;55.92
6387;BME280;3226;42.162;24.756;2023-03-21T09:48:16;99512.75;;;15.53;55.16
6387;BME280;3226;42.162;24.756;2023-03-21T09:50:48;99495.28;;;15.52;55.91
6387;BME280;3226;42.162;24.756;2023-03-21T09:53:21;99502.88;;;15.80;53.68
6387;BME280;3226;42.162;24.756;2023-03-21T09:55:50;99507.00;;;15.66;53.44
6387;BME280;3226;42.162;24.756;2023-03-21T09:58:24;99494.41;;;15.43;54.30
6387;BME280;3226;42.162;24.756;2023-03-21T10:00:58;99502.19;;;15.53;54.64
6387;BME280;3226;42.162;24.756;2023-03-21T10:03:29;99498.97;;;16.09;52.80
6387;BME280;3226;42.162;24.756;2023-03-21T10:06:03;99492.97;;;16.07;52.67
6387;BME280;3226;42.162;24.756;2023-03-21T10:08:36;99482.41;;;16.24;52.42
6387;BME280;3226;42.162;24.756;2023-03-21T10:11:12;99487.53;;;16.33;51.00
6387;BME280;3226;42.162;24.756;2023-03-21T10:13:45;99473.16;;;16.28;51.23
6387;BME280;3226;42.162;24.756;2023-03-21T10:16:22;99492.56;;;16.60;50.65
6387;BME280;3226;42.162;24.756;2023-03-21T10:18:54;99493.69;;;16.74;50.01
6387;BME280;3226;42.162;24.756;2023-03-21T10:21:24;99480.22;;;16.92;49.51
6387;BME280;3226;42.162;24.756;2023-03-21T10:24:16;99485.22;;;16.87;49.96
6387;BME280;3226;42.162;24.756;2023-03-21T10:26:46;99453.69;;;16.77;49.95
6387;BME280;3226;42.162;24.756;2023-03-21T10:29:16;99481.13;;;17.16;48.95
6387;BME280;3226;42.162;24.756;2023-03-21T10:31:50;99450.91;;;17.33;47.78
6387;BME280;3226;42.162;24.756;2023-03-21T10:34:27;99481.09;;;17.24;48.49
6387;BME280;3226;42.162;24.756;2023-03-21T10:36:58;99469.63;;;16.92;49.30
6387;BME280;3226;42.162;24.756;2023-03-21T10:39:31;99466.16;;;16.43;49.94
6387;BME280;3226;42.162;24.756;2023-03-21T10:42:00;99464.28;;;16.04;51.14
6387;BME280;3226;42.162;24.756;2023-03-21T10:44:29;99463.94;;;15.66;52.11
6387;BME280;3226;42.162;24.756;2023-03-21T10:47:03;99460.59;;;15.30;53.17
6387;BME280;3226;42.162;24.756;2023-03-21T10:49:32;99457.97;;;15.72;52.53
6387;BME280;3226;42.162;24.756;2023-03-21T10:52:10;99444.28;;;15.76;52.90
6387;BME280;3226;42.162;24.756;2023-03-21T10:54:40;99416.44;;;15.74;51.73
6387;BME280;3226;42.162;24.756;2023-03-21T10:57:10;99408.34;;;15.34;51.77
6387;BME280;3226;42.162;24.756;2023-03-21T10:59:42;99434.41;;;15.62;51.41
6387;BME280;3226;42.162;24.756;2023-03-21T11:02:17;99418.56;;;15.54;51.00
6387;BME280;3226;42.162;24.756;2023-03-21T11:04:46;99428.13;;;15.71;50.93
6387;BME280;3226;42.162;24.756;2023-03-21T11:07:15;99421.56;;;15.92;49.79
6387;BME280;3226;42.162;24.756;2023-03-21T11:09:46;99423.31;;;16.16;49.17
6387;BME280;3226;42.162;24.756;2023-03-21T11:12:28;99414.31;;;16.51;48.09
6387;BME280;3226;42.162;24.756;2023-03-21T11:14:56;99404.41;;;16.44;48.86
6387;BME280;3226;42.162;24.756;2023-03-21T11:17:27;99392.97;;;16.12;49.65
6387;BME280;3226;42.162;24.756;2023-03-21T11:19:57;99387.38;;;15.90;49.94
6387;BME280;3226;42.162;24.756;2023-03-21T11:22:28;99289.25;;;15.54;50.05
6387;BME280;3226;42.162;24.756;2023-03-21T11:24:58;99380.63;;;15.71;51.08
6387;BME280;3226;42.162;24.756;2023-03-21T11:27:28;99376.00;;;15.73;51.82
6387;BME280;3226;42.162;24.756;2023-03-21T11:29:58;99379.59;;;16.06;51.90
6387;BME280;3226;42.162;24.756;2023-03-21T11:32:32;99347.63;;;16.32;50.41
6387;BME280;3226;42.162;24.756;2023-03-21T11:35:05;99378.91;;;16.60;50.09
6387;BME280;3226;42.162;24.756;2023-03-21T11:37:38;99374.78;;;16.89;49.81
6387;BME280;3226;42.162;24.756;2023-03-21T11:40:18;99363.31;;;16.97;49.24
6387;BME280;3226;42.162;24.756;2023-03-21T11:42:48;99374.34;;;17.09;49.38
6387;BME280;3226;42.162;24.756;2023-03-21T11:45:20;99361.66;;;17.04;49.47
6387;BME280;3226;42.162;24.756;2023-03-21T11:47:53;99359.84;;;16.96;50.24
6387;BME280;3226;42.162;24.756;2023-03-21T11:50:28;99337.66;;;16.51;50.95
6387;BME280;3226;42.162;24.756;2023-03-21T11:53:15;99333.47;;;16.56;50.92
6387;BME280;3226;42.162;24.756;2023-03-21T11:56:06;99342.09;;;16.82;50.76
6387;BME280;3226;42.162;24.756;2023-03-21T11:58:46;99315.66;;;16.18;52.15
6387;BME280;3226;42.162;24.756;2023-03-21T12:01:23;99334.03;;;16.43;51.58
6387;BME280;3226;42.162;24.756;2023-03-21T12:04:02;99340.16;;;16.44;51.62
6387;BME280;3226;42.162;24.756;2023-03-21T12:06:34;99345.41;;;16.84;50.28
6387;BME280;3226;42.162;24.756;2023-03-21T12:09:19;99334.56;;;17.02;50.23
6387;BME280;3226;42.162;24.756;2023-03-21T12:11:58;99338.84;;;16.71;51.04
6387;BME280;3226;42.162;24.756;2023-03-21T12:14:34;99331.34;;;16.83;50.78
6387;BME280;3226;42.162;24.756;2023-03-21T12:17:17;99322.00;;;16.41;52.38
6387;BME280;3226;42.162;24.756;2023-03-21T12:23:01;99320.53;;;15.90;55.00
6387;BME280;3226;42.162;24.756;2023-03-21T12:25:37;99318.66;;;16.15;54.09
6387;BME280;3226;42.162;24.756;2023-03-21T12:28:18;99308.44;;;16.44;53.18
6387;BME280;3226;42.162;24.756;2023-03-21T12:31:06;99307.78;;;16.42;53.18
6387;BME280;3226;42.162;24.756;2023-03-21T12:33:46;99287.97;;;16.14;54.45
6387;BME280;3226;42.162;24.756;2023-03-21T12:36:30;99297.53;;;16.07;54.27
6387;BME280;3226;42.162;24.756;2023-03-21T12:39:13;99295.50;;;16.26;53.69
6387;BME280;3226;42.162;24.756;2023-03-21T12:41:55;99290.00;;;16.36;53.08
6387;BME280;3226;42.162;24.756;2023-03-21T12:44:28;99285.81;;;16.41;53.27
6387;BME280;3226;42.162;24.756;2023-03-21T12:47:02;99275.16;;;16.26;53.49
6387;BME280;3226;42.162;24.756;2023-03-21T12:49:34;99258.38;;;15.63;55.32
6387;BME280;3226;42.162;24.756;2023-03-21T12:52:07;99274.75;;;15.41;57.31
6387;BME280;3226;42.162;24.756;2023-03-21T12:54:42;99280.47;;;15.78;56.65
6387;BME280;3226;42.162;24.756;2023-03-21T12:57:16;99276.31;;;15.84;56.38
6387;BME280;3226;42.162;24.756;2023-03-21T12:59:49;99288.31;;;16.03;55.99
6387;BME280;3226;42.162;24.756;2023-03-21T13:02:25;99285.41;;;15.81;56.39
6387;BME280;3226;42.162;24.756;2023-03-21T13:05:00;99280.38;;;16.11;55.75
6387;BME280;3226;42.162;24.756;2023-03-21T13:07:33;99279.63;;;16.26;55.38
6387;BME280;3226;42.162;24.756;2023-03-21T13:10:13;99279.47;;;15.79;56.96
6387;BME280;3226;42.162;24.756;2023-03-21T13:12:50;99276.09;;;16.10;56.20
6387;BME280;3226;42.162;24.756;2023-03-21T13:15:31;99267.63;;;16.15;55.91
6387;BME280;3226;42.162;24.756;2023-03-21T13:18:12;99269.13;;;16.17;56.48
6387;BME280;3226;42.162;24.756;2023-03-21T13:20:45;99253.88;;;15.96;57.25
6387;BME280;3226;42.162;24.756;2023-03-21T13:23:14;99234.25;;;15.82;57.54
6387;BME280;3226;42.162;24.756;2023-03-21T13:25:46;99270.31;;;16.07;57.64
6387;BME280;3226;42.162;24.756;2023-03-21T13:28:19;99261.59;;;15.98;58.08
6387;BME280;3226;42.162;24.756;2023-03-21T13:30:48;99263.28;;;15.90;58.54
6387;BME280;3226;42.162;24.756;2023-03-21T13:33:22;99253.38;;;15.93;58.62
6387;BME280;3226;42.162;24.756;2023-03-21T13:35:58;99248.44;;;15.89;58.34
6387;BME280;3226;42.162;24.756;2023-03-21T13:38:32;99220.84;;;15.36;59.84
6387;BME280;3226;42.162;24.756;2023-03-21T13:41:06;99244.78;;;15.34;60.15
6387;BME280;3226;42.162;24.756;2023-03-21T13:43:41;99238.03;;;15.15;61.13
6387;BME280;3226;42.162;24.756;2023-03-21T13:46:11;99225.50;;;15.25;60.74
6387;BME280;3226;42.162;24.756;2023-03-21T13:48:53;99209.97;;;15.39;60.09
6387;BME280;3226;42.162;24.756;2023-03-21T13:51:41;99230.78;;;15.25;60.84